Time;durP1;ratioP1;P1;durP2;ratioP2;P2;SDS_P1;SDS_P2;PMS_P1;PMS_P2;Temp;Humidity;BMP_temperature;BMP_pressure;BME280_temperature;BME280_humidity;BME280_pressure;Samples;Min_cycle;Max_cycle;Signal;HPM_P1;HPM_P2
2021/06/29 00:02:14;;;;;;;6.28;2.90;;;;;;;24.29;51.84;96994.50;5086729;28;20479;-72
2021/06/29 00:04:39;;;;;;;4.75;2.80;;;;;;;24.10;53.47;97007.25;5054076;28;20035;-72
2021/06/29 00:07:05;;;;;;;4.85;2.80;;;;;;;24.13;52.96;97004.09;5086211;28;20424;-72
2021/06/29 00:09:30;;;;;;;11.73;2.97;;;;;;;24.13;52.78;97009.59;5053919;28;20059;-71
2021/06/29 00:11:56;;;;;;;9.05;2.70;;;;;;;24.27;51.67;97004.84;5054170;28;20078;-72
2021/06/29 00:14:21;;;;;;;8.20;2.75;;;;;;;24.31;50.83;97008.84;5086356;28;20051;-72
2021/06/29 00:16:47;;;;;;;5.07;2.42;;;;;;;24.13;52.46;97008.72;5053848;28;20477;-73
2021/06/29 00:19:12;;;;;;;6.50;2.72;;;;;;;24.06;53.35;97015.09;5053202;28;20029;-72
2021/06/29 00:21:38;;;;;;;9.13;3.00;;;;;;;24.13;52.52;97008.72;5053959;28;20029;-72
2021/06/29 00:24:03;;;;;;;5.15;2.70;;;;;;;23.92;52.35;97015.34;5066661;28;20457;-73
2021/06/29 00:26:29;;;;;;;8.18;2.67;;;;;;;23.97;52.43;97013.66;5070588;28;20037;-72
2021/06/29 00:28:54;;;;;;;6.93;2.70;;;;;;;23.96;52.51;97019.34;5072723;28;20020;-72
2021/06/29 00:31:20;;;;;;;8.57;2.85;;;;;;;24.03;52.33;97012.78;5072713;28;20465;-72
2021/06/29 00:33:45;;;;;;;5.13;2.70;;;;;;;24.10;53.27;97020.16;5072253;28;20024;-72
2021/06/29 00:36:15;;;;;;;9.13;2.67;;;;;;;23.90;54.33;97021.06;5073610;28;20024;-72
2021/06/29 00:38:40;;;;;;;5.88;3.00;;;;;;;23.87;55.35;97035.19;5073760;28;20024;-72
2021/06/29 00:41:06;;;;;;;9.23;3.08;;;;;;;23.52;57.43;97016.28;5072767;28;20039;-71
2021/06/29 00:43:31;;;;;;;8.57;2.97;;;;;;;23.50;57.53;97021.13;5073278;28;20024;-71
2021/06/29 00:45:56;;;;;;;6.93;3.13;;;;;;;23.42;57.90;97013.13;5073402;28;20020;-71
2021/06/29 00:48:22;;;;;;;6.57;3.00;;;;;;;23.49;58.56;97016.69;5073558;28;20028;-71
2021/06/29 00:50:47;;;;;;;10.55;3.00;;;;;;;23.46;57.38;97003.41;5073332;28;20028;-71
2021/06/29 00:53:13;;;;;;;8.02;3.00;;;;;;;23.57;56.85;97008.22;5073424;28;20074;-71
2021/06/29 00:55:40;;;;;;;7.22;3.00;;;;;;;23.46;57.85;97006.16;5072343;28;20016;-71
2021/06/29 00:58:11;;;;;;;8.25;3.30;;;;;;;23.39;56.35;97004.25;5072996;28;20435;-74
2021/06/29 01:00:41;;;;;;;6.32;2.90;;;;;;;23.56;55.79;97004.66;5073388;28;20025;-73
2021/06/29 01:03:07;;;;;;;;;;;;;;;23.54;56.31;97009.53;5072420;28;20381;-69
2021/06/29 01:05:32;;;;;;;7.70;2.83;;;;;;;23.57;55.99;97000.00;5073010;28;19912;-70
2021/06/29 01:07:58;;;;;;;6.57;2.70;;;;;;;23.63;54.70;97003.81;5073061;28;20431;-72
2021/06/29 01:10:23;;;;;;;4.32;2.70;;;;;;;23.64;54.37;96997.25;5072704;28;20056;-72
2021/06/29 01:12:49;;;;;;;7.93;2.97;;;;;;;23.67;53.19;96991.34;5072162;28;20526;-72
2021/06/29 01:15:15;;;;;;;9.82;3.10;;;;;;;23.75;53.09;96996.59;5073587;28;20032;-72
2021/06/29 01:17:40;;;;;;;9.13;2.78;;;;;;;23.67;53.50;96992.16;5072944;28;20025;-72
2021/06/29 01:20:13;;;;;;;10.57;2.95;;;;;;;23.53;53.44;96996.00;5071750;28;20143;-72
2021/06/29 01:22:39;;;;;;;6.43;2.70;;;;;;;23.59;52.68;96999.81;5073189;28;20029;-72
2021/06/29 01:25:05;;;;;;;6.25;2.80;;;;;;;23.46;52.49;97004.25;5071744;28;20040;-71
2021/06/29 01:32:27;;;;;;;6.65;2.60;;;;;;;23.51;52.17;96992.66;5076965;28;20047;-72
2021/06/29 01:34:52;;;;;;;4.90;2.53;;;;;;;23.55;51.43;96996.63;5075686;28;20030;-72
2021/06/29 01:37:19;;;;;;;6.20;2.83;;;;;;;23.60;50.65;97001.47;5077152;28;20029;-71
2021/06/29 01:39:59;;;;;;;6.65;2.67;;;;;;;23.48;50.94;96991.16;5076670;28;20040;-72
2021/06/29 01:42:25;;;;;;;6.22;2.80;;;;;;;23.61;50.75;96993.03;5077098;28;20071;-72
2021/06/29 01:44:51;;;;;;;4.50;2.60;;;;;;;23.62;50.34;96997.47;5076776;28;20043;-72
2021/06/29 01:47:26;;;;;;;6.03;2.50;;;;;;;23.64;50.12;96989.03;5075457;28;20488;-72
2021/06/29 01:49:51;;;;;;;5.13;2.80;;;;;;;23.66;49.97;96989.66;5077106;28;20067;-71
2021/06/29 01:52:17;;;;;;;7.47;2.70;;;;;;;23.60;50.16;96985.88;5076507;28;20024;-71
2021/06/29 01:54:45;;;;;;;7.35;2.53;;;;;;;23.48;50.45;96990.34;5076773;28;20104;-70
2021/06/29 01:57:15;;;;;;;7.30;2.55;;;;;;;23.43;50.27;96990.13;5075097;28;20389;-70
2021/06/29 01:59:44;;;;;;;6.57;2.80;;;;;;;23.42;50.84;96993.94;5070948;28;20036;-70
2021/06/29 02:02:10;;;;;;;5.35;2.70;;;;;;;22.56;56.44;97000.00;5075442;28;20146;-70
2021/06/29 02:04:35;;;;;;;6.05;2.72;;;;;;;22.73;56.01;97002.38;5076306;28;20535;-70
2021/06/29 02:07:00;;;;;;;4.65;2.83;;;;;;;22.65;57.32;96992.44;5075244;28;20036;-70
2021/06/29 02:09:26;;;;;;;7.18;2.80;;;;;;;22.48;57.89;96983.75;5075925;28;20106;-70
2021/06/29 02:11:51;;;;;;;9.25;3.08;;;;;;;22.54;58.00;96984.81;5075776;28;20476;-71
2021/06/29 02:14:16;;;;;;;5.00;3.03;;;;;;;22.51;58.74;96988.81;5075685;28;20030;-71
2021/06/29 02:16:42;;;;;;;7.20;3.25;;;;;;;22.54;58.49;96984.81;5076032;28;20118;-70
2021/06/29 02:19:09;;;;;;;7.50;3.20;;;;;;;22.62;57.99;96986.53;5075760;28;20036;-70
2021/06/29 02:21:35;;;;;;;7.82;3.13;;;;;;;22.77;56.71;96970.72;5075894;28;20064;-69
2021/06/29 02:24:00;;;;;;;7.00;3.10;;;;;;;22.82;52.77;96968.22;5074593;28;20056;-70
2021/06/29 02:26:26;;;;;;;9.75;2.58;;;;;;;23.03;51.54;96969.88;5075596;28;20068;-71
2021/06/29 02:28:51;;;;;;;6.85;2.85;;;;;;;23.07;50.58;96968.38;5057788;28;20028;-70
2021/06/29 02:31:16;;;;;;;8.50;2.70;;;;;;;22.98;50.77;96961.47;5075863;28;20032;-70
2021/06/29 02:33:42;;;;;;;5.63;2.47;;;;;;;23.09;50.28;96949.00;5075615;28;20531;-71
2021/06/29 02:36:07;;;;;;;7.20;2.67;;;;;;;23.16;49.06;96941.63;5075644;28;20024;-71
2021/06/29 02:38:33;;;;;;;6.45;2.30;;;;;;;23.19;48.73;96929.38;5075541;28;20036;-72
2021/06/29 02:40:58;;;;;;;4.47;2.42;;;;;;;23.15;48.43;96919.91;5073501;28;20041;-72
2021/06/29 02:43:24;;;;;;;3.38;2.20;;;;;;;23.13;48.30;96930.19;5074395;28;20028;-70
2021/06/29 02:45:49;;;;;;;4.55;2.30;;;;;;;22.98;49.60;96930.44;5075297;28;20029;-69
2021/06/29 02:48:15;;;;;;;6.40;2.22;;;;;;;22.76;49.34;96919.69;5075491;28;20158;-71
2021/06/29 02:50:40;;;;;;;5.43;2.40;;;;;;;22.72;50.49;96924.75;5074046;28;20119;-70
2021/06/29 02:53:06;;;;;;;5.38;2.45;;;;;;;22.76;49.68;96927.91;5075410;28;20029;-70
2021/06/29 02:55:32;;;;;;;5.40;2.20;;;;;;;22.69;49.63;96921.59;5073861;28;20020;-70
2021/06/29 02:57:57;;;;;;;6.05;2.25;;;;;;;22.87;48.44;96919.03;5075086;28;20025;-69
2021/06/29 03:00:23;;;;;;;5.45;2.20;;;;;;;22.92;49.21;96914.84;5074081;28;20064;-69
2021/06/29 03:02:49;;;;;;;3.97;2.40;;;;;;;23.02;48.42;96920.72;5075395;28;20024;-70
2021/06/29 03:05:15;;;;;;;2.75;2.00;;;;;;;23.05;47.52;96914.84;5073830;28;20477;-69
2021/06/29 03:07:41;;;;;;;7.32;2.10;;;;;;;22.98;47.08;96911.25;5074844;28;20025;-70
2021/06/29 03:10:08;;;;;;;6.00;2.20;;;;;;;23.19;46.47;96915.66;5074768;28;20044;-70
2021/06/29 03:12:34;;;;;;;7.00;2.30;;;;;;;22.94;47.33;96921.78;5074865;28;20060;-69
2021/06/29 03:15:01;;;;;;;4.28;2.22;;;;;;;23.07;47.13;96924.50;5075222;28;20057;-68
2021/06/29 03:17:27;;;;;;;4.53;2.00;;;;;;;23.21;46.85;96936.34;5074673;28;20032;-68
2021/06/29 03:19:53;;;;;;;6.78;2.10;;;;;;;23.04;46.50;96927.69;5075041;28;20025;-69
2021/06/29 03:22:18;;;;;;;7.22;2.17;;;;;;;23.13;46.32;96947.53;5073458;28;20035;-68
2021/06/29 03:24:44;;;;;;;5.03;2.08;;;;;;;23.30;46.50;96958.06;5072247;28;20112;-69
2021/06/29 03:27:09;;;;;;;6.70;2.30;;;;;;;22.97;47.09;96956.16;5074606;28;20024;-68
2021/06/29 03:29:36;;;;;;;6.22;2.50;;;;;;;22.87;47.40;96962.91;5074435;28;20074;-68
2021/06/29 03:32:02;;;;;;;7.47;2.15;;;;;;;22.74;47.87;96963.78;5073721;28;20047;-68
2021/06/29 03:34:27;;;;;;;6.28;2.20;;;;;;;22.78;47.50;96949.63;5073255;28;20121;-68
2021/06/29 03:36:53;;;;;;;6.88;2.00;;;;;;;22.78;47.04;96950.47;5073248;28;20021;-68
2021/06/29 03:39:19;;;;;;;4.00;2.30;;;;;;;22.66;48.71;96947.53;5073323;28;20399;-68
2021/06/29 03:41:45;;;;;;;9.38;2.00;;;;;;;22.64;47.04;96941.41;5074348;28;20060;-69
2021/06/29 03:44:11;;;;;;;4.22;1.83;;;;;;;22.77;46.52;96926.88;5073255;28;20074;-68
2021/06/29 03:46:36;;;;;;;3.45;2.00;;;;;;;22.85;46.16;96917.56;5073002;28;20033;-67
2021/06/29 03:49:01;;;;;;;6.40;2.08;;;;;;;22.79;46.47;96911.03;5074263;28;20028;-67
2021/06/29 03:51:27;;;;;;;4.07;1.90;;;;;;;22.90;45.61;96924.13;5072171;28;20036;-67
2021/06/29 03:53:52;;;;;;;3.72;1.90;;;;;;;22.85;45.63;96909.34;5073687;28;20032;-67
2021/06/29 03:56:24;;;;;;;5.10;1.98;;;;;;;22.80;46.21;96917.38;5074403;28;20040;-67
2021/06/29 03:58:56;;;;;;;4.13;1.80;;;;;;;23.00;45.44;96926.41;5073897;28;20035;-67
2021/06/29 04:01:22;;;;;;;5.82;2.00;;;;;;;22.98;46.35;96935.91;5073830;28;20552;-69
2021/06/29 04:03:48;;;;;;;5.28;2.05;;;;;;;22.99;46.01;96943.94;5073905;28;20092;-68
2021/06/29 04:06:14;;;;;;;4.40;2.10;;;;;;;22.95;45.93;96952.81;5059011;28;20477;-68
2021/06/29 04:08:39;;;;;;;2.65;2.00;;;;;;;22.93;46.51;96949.41;5053967;28;20037;-66
2021/06/29 04:11:05;;;;;;;6.18;2.20;;;;;;;23.06;46.20;96955.75;5057113;28;20033;-68
2021/06/29 04:13:30;;;;;;;8.02;2.05;;;;;;;23.10;46.36;96949.84;5071341;28;20159;-68
2021/06/29 04:15:55;;;;;;;3.33;2.03;;;;;;;23.11;45.95;96951.53;5073290;28;20035;-68
2021/06/29 04:18:21;;;;;;;4.13;1.90;;;;;;;23.23;46.52;96952.59;5073091;28;20035;-68
2021/06/29 04:20:46;;;;;;;6.13;2.33;;;;;;;23.16;46.29;96949.84;5073444;28;20451;-68
2021/06/29 04:23:11;;;;;;;5.47;2.15;;;;;;;23.15;46.90;96953.66;5073759;28;20032;-68
2021/06/29 04:25:37;;;;;;;6.65;2.25;;;;;;;23.08;47.45;96953.63;5072067;28;20035;-67
2021/06/29 04:28:03;;;;;;;6.88;2.40;;;;;;;23.07;47.65;96951.09;5073698;28;20024;-68
2021/06/29 04:30:28;;;;;;;3.67;2.33;;;;;;;23.22;48.01;96954.50;5066693;28;20029;-69
2021/06/29 04:32:54;;;;;;;5.55;2.08;;;;;;;23.10;48.12;96950.66;5071943;28;20028;-69
2021/06/29 04:35:19;;;;;;;5.57;2.42;;;;;;;22.96;48.04;96941.63;5073727;28;20024;-68
2021/06/29 04:37:44;;;;;;;8.43;2.50;;;;;;;23.06;49.03;96943.91;5073129;28;20032;-69
2021/06/29 04:40:10;;;;;;;6.90;2.45;;;;;;;23.00;48.98;96942.03;5071935;28;20028;-69
2021/06/29 04:42:36;;;;;;;4.88;2.40;;;;;;;22.83;49.42;96939.72;5070050;28;20029;-69
2021/06/29 04:45:03;;;;;;;7.38;2.70;;;;;;;22.87;50.17;96940.97;5067973;28;20029;-67
2021/06/29 04:47:35;;;;;;;5.65;2.50;;;;;;;22.87;51.22;96940.16;5068000;28;20029;-69
2021/06/29 04:50:00;;;;;;;5.88;2.42;;;;;;;22.80;50.79;96940.16;5068660;28;20032;-68
2021/06/29 04:52:26;;;;;;;8.25;2.60;;;;;;;22.89;51.83;96952.59;5070488;28;20031;-69
2021/06/29 04:54:51;;;;;;;7.18;2.80;;;;;;;23.07;50.98;96951.94;5072612;28;20434;-68
2021/06/29 04:57:17;;;;;;;8.05;3.00;;;;;;;23.08;50.88;96945.41;5073013;28;20063;-69
2021/06/29 04:59:43;;;;;;;8.25;2.85;;;;;;;22.96;51.58;96944.34;5070871;28;20032;-68
2021/06/29 05:02:08;;;;;;;12.10;2.97;;;;;;;22.96;52.71;96946.28;5062746;28;20101;-67
2021/06/29 05:04:34;;;;;;;5.82;2.42;;;;;;;23.14;52.42;96957.44;5064398;28;20040;-67
2021/06/29 05:06:59;;;;;;;6.38;2.75;;;;;;;23.16;52.17;96951.75;5064027;28;20107;-67
2021/06/29 05:09:25;;;;;;;8.20;2.85;;;;;;;23.22;52.37;96949.00;5070889;28;20041;-68
2021/06/29 05:11:50;;;;;;;5.93;2.80;;;;;;;23.34;50.70;96942.84;5064560;28;20511;-68
2021/06/29 05:14:15;;;;;;;5.47;2.55;;;;;;;23.41;50.22;96954.69;5072035;28;20039;-68
2021/06/29 05:16:41;;;;;;;7.10;2.50;;;;;;;23.44;49.75;96959.72;5069625;28;20377;-67
2021/06/29 05:19:06;;;;;;;7.65;2.78;;;;;;;23.38;50.55;96947.72;5065743;28;20036;-69
2021/06/29 05:21:31;;;;;;;7.40;2.50;;;;;;;23.42;49.97;96961.81;5059205;28;20535;-68
2021/06/29 05:23:57;;;;;;;5.25;2.40;;;;;;;23.32;50.05;96954.03;5057423;28;20025;-71
2021/06/29 05:26:22;;;;;;;6.05;2.78;;;;;;;23.42;49.70;96956.34;5057353;28;20108;-70
2021/06/29 05:28:48;;;;;;;6.65;2.50;;;;;;;23.46;49.46;96963.06;5072484;28;20117;-73
2021/06/29 05:31:13;;;;;;;6.97;2.60;;;;;;;23.36;49.31;96957.22;5072771;28;20033;-71
2021/06/29 05:33:39;;;;;;;7.28;2.50;;;;;;;23.40;50.00;96956.56;5072955;28;20033;-71
2021/06/29 05:36:04;;;;;;;7.43;2.50;;;;;;;23.32;49.54;96956.78;5072510;28;20025;-71
2021/06/29 05:38:30;;;;;;;9.40;3.00;;;;;;;23.51;49.66;96954.22;5104980;28;20071;-70
2021/06/29 05:40:55;;;;;;;10.45;3.10;;;;;;;23.46;49.73;96954.00;5071259;28;20029;-69
2021/06/29 05:43:21;;;;;;;15.13;3.10;;;;;;;23.48;50.49;96968.38;5071468;28;20090;-69
2021/06/29 05:45:46;;;;;;;5.15;2.60;;;;;;;23.31;51.68;96965.25;5071228;28;20033;-71
2021/06/29 05:48:14;;;;;;;6.28;2.80;;;;;;;23.51;50.49;96970.69;5072147;28;20469;-71
2021/06/29 05:50:40;;;;;;;8.07;2.70;;;;;;;23.42;52.08;96970.06;5070219;28;20504;-72
2021/06/29 05:53:05;;;;;;;5.90;2.72;;;;;;;23.64;49.85;96958.84;5069052;28;20040;-71
2021/06/29 05:55:31;;;;;;;6.45;2.58;;;;;;;23.63;48.40;96959.88;5069021;28;20028;-70
2021/06/29 05:57:56;;;;;;;8.57;2.63;;;;;;;23.59;49.90;96958.63;5070222;28;20052;-71
2021/06/29 06:00:22;;;;;;;7.60;2.67;;;;;;;23.73;50.22;96963.00;5068796;28;20444;-70
2021/06/29 06:02:47;;;;;;;5.28;2.60;;;;;;;23.77;50.05;96963.41;5069948;28;20024;-69
2021/06/29 06:05:13;;;;;;;6.65;2.67;;;;;;;24.02;49.25;96960.81;5071499;28;20025;-69
2021/06/29 06:07:39;;;;;;;8.05;3.17;;;;;;;24.11;48.14;96958.66;5072466;28;20016;-69
2021/06/29 06:10:05;;;;;;;7.22;2.90;;;;;;;24.11;48.28;96975.16;5071865;28;20052;-70
2021/06/29 06:12:32;;;;;;;9.07;3.00;;;;;;;24.16;48.86;96961.56;5066850;28;20237;-70
2021/06/29 06:14:57;;;;;;;9.57;2.92;;;;;;;24.18;48.72;96960.28;5078402;28;20170;-71
2021/06/29 06:17:23;;;;;;;7.75;2.72;;;;;;;24.40;47.88;96959.97;5071779;28;20078;-71
2021/06/29 06:19:48;;;;;;;7.47;3.30;;;;;;;24.29;48.87;96967.03;5074908;28;20533;-71
2021/06/29 06:22:14;;;;;;;7.38;2.72;;;;;;;24.30;47.55;96963.19;5074785;28;20097;-71
2021/06/29 06:24:39;;;;;;;8.32;3.75;;;;;;;24.14;53.58;96969.22;5079338;28;20028;-71
2021/06/29 06:27:08;;;;;;;6.32;3.03;;;;;;;24.40;51.33;96976.47;5085238;28;20029;-70
2021/06/29 06:29:33;;;;;;;11.23;3.20;;;;;;;24.60;48.77;96976.34;5086718;28;20042;-71
2021/06/29 06:31:58;;;;;;;6.55;3.05;;;;;;;24.69;48.17;96976.94;5079196;28;20032;-72
2021/06/29 06:34:24;;;;;;;6.80;3.10;;;;;;;24.70;47.95;96982.19;5091669;28;20025;-71
2021/06/29 06:36:49;;;;;;;7.47;3.00;;;;;;;24.89;46.75;96988.63;5081538;28;20373;-69
2021/06/29 06:39:15;;;;;;;7.25;2.83;;;;;;;24.82;46.71;96987.84;5083045;28;20036;-71
2021/06/29 06:41:40;;;;;;;8.05;3.03;;;;;;;24.79;47.05;96985.53;5088798;28;20078;-71
2021/06/29 06:44:06;;;;;;;10.38;2.72;;;;;;;24.69;47.23;96982.44;5078366;28;20100;-70
2021/06/29 06:46:31;;;;;;;7.38;2.97;;;;;;;24.77;46.74;96978.56;5081277;28;20035;-71
2021/06/29 06:48:56;;;;;;;6.85;2.90;;;;;;;25.05;46.23;96975.38;5087486;28;20103;-71
2021/06/29 06:51:22;;;;;;;10.10;3.17;;;;;;;25.21;46.11;96973.97;5084569;28;20139;-71
2021/06/29 06:53:50;;;;;;;6.45;2.72;;;;;;;25.29;45.90;96973.66;5066891;28;20141;-71
2021/06/29 06:56:15;;;;;;;8.80;2.88;;;;;;;25.22;45.80;96976.50;5065386;28;20048;-68
2021/06/29 06:58:44;;;;;;;7.93;2.95;;;;;;;25.35;46.05;96980.22;5066628;28;20456;-70
2021/06/29 07:01:11;;;;;;;6.45;2.75;;;;;;;25.34;45.91;96984.03;5074325;28;20032;-69
2021/06/29 07:03:37;;;;;;;6.68;2.70;;;;;;;25.35;47.36;96991.25;5062997;28;20511;-70
2021/06/29 07:06:04;;;;;;;4.97;2.90;;;;;;;25.33;47.29;96980.41;5066993;28;20033;-71
2021/06/29 07:08:30;;;;;;;6.65;3.08;;;;;;;25.41;46.04;96979.31;5069290;28;20083;-70
2021/06/29 07:10:57;;;;;;;7.72;3.30;;;;;;;25.42;46.63;96974.66;5067842;28;20053;-71
2021/06/29 07:13:23;;;;;;;14.73;3.47;;;;;;;25.52;45.87;96973.06;5070548;28;20035;-70
2021/06/29 07:15:48;;;;;;;13.43;3.75;;;;;;;25.56;46.13;96979.78;5074418;28;20422;-70
2021/06/29 07:18:16;;;;;;;9.93;3.50;;;;;;;25.47;46.55;96974.78;5090784;28;20024;-70
2021/06/29 07:20:42;;;;;;;6.75;3.33;;;;;;;25.59;46.73;96977.63;5074885;28;20020;-70
2021/06/29 07:23:08;;;;;;;8.48;3.40;;;;;;;25.52;47.30;96969.44;5074431;28;20028;-70
2021/06/29 07:25:34;;;;;;;7.75;3.45;;;;;;;25.60;47.29;96971.06;5081615;28;20032;-70
2021/06/29 07:27:59;;;;;;;8.45;3.30;;;;;;;25.58;47.44;96970.47;5073167;28;20029;-71
2021/06/29 07:30:25;;;;;;;10.43;3.38;;;;;;;25.70;47.62;96969.47;5082395;28;20388;-71
2021/06/29 07:32:53;;;;;;;8.10;3.78;;;;;;;25.53;47.47;96974.72;5080754;28;20097;-71
2021/06/29 07:35:19;;;;;;;7.05;3.25;;;;;;;25.72;46.76;96971.97;5083553;28;20020;-71
2021/06/29 07:37:45;;;;;;;14.02;4.00;;;;;;;25.77;46.75;96968.56;5078517;28;20104;-71
2021/06/29 07:40:10;;;;;;;12.35;3.60;;;;;;;25.81;46.44;96970.59;5090723;28;20399;-71
2021/06/29 07:42:36;;;;;;;9.18;3.40;;;;;;;25.85;46.41;96968.25;5078526;28;20028;-71
2021/06/29 07:45:04;;;;;;;7.38;3.20;;;;;;;25.95;46.34;96959.44;5093701;28;20408;-71
2021/06/29 07:47:29;;;;;;;11.18;3.85;;;;;;;25.92;46.78;96960.72;5080846;28;20373;-71
2021/06/29 07:49:54;;;;;;;10.63;3.67;;;;;;;26.09;46.13;96958.22;5073177;28;20021;-71
2021/06/29 07:52:20;;;;;;;7.35;3.75;;;;;;;26.12;45.46;96955.00;5090406;28;20024;-70
2021/06/29 07:54:45;;;;;;;11.68;3.33;;;;;;;26.19;45.96;96953.00;5068310;28;20108;-72
2021/06/29 07:57:11;;;;;;;6.72;3.15;;;;;;;26.23;46.26;96954.22;5066286;28;20404;-72
2021/06/29 07:59:36;;;;;;;14.65;3.60;;;;;;;26.23;45.71;96954.22;5080707;28;20029;-71
2021/06/29 08:02:02;;;;;;;9.30;3.40;;;;;;;26.27;44.76;96945.47;5090113;28;20047;-71
2021/06/29 08:04:27;;;;;;;7.68;3.20;;;;;;;26.33;45.54;96953.66;5071713;28;20099;-68
2021/06/29 08:06:52;;;;;;;13.23;3.40;;;;;;;26.17;45.59;96944.13;5073514;28;20367;-70
2021/06/29 08:09:18;;;;;;;6.07;3.13;;;;;;;26.31;46.02;96946.69;5076777;28;20075;-71
2021/06/29 08:11:43;;;;;;;11.25;3.10;;;;;;;26.33;45.84;96942.63;5072865;28;20025;-71
2021/06/29 08:14:09;;;;;;;6.97;3.05;;;;;;;26.49;45.79;96941.13;5073671;28;20364;-70
2021/06/29 08:16:34;;;;;;;8.07;2.88;;;;;;;26.26;46.85;96939.13;5075008;28;20051;-69
2021/06/29 08:18:59;;;;;;;10.27;3.03;;;;;;;26.53;46.37;96930.47;5073367;28;20020;-71
2021/06/29 08:21:25;;;;;;;5.75;2.53;;;;;;;26.63;45.39;96925.22;5084587;28;20123;-70
2021/06/29 08:23:50;;;;;;;8.07;3.08;;;;;;;26.76;44.81;96926.13;5078397;28;20031;-70
2021/06/29 08:26:16;;;;;;;8.38;2.70;;;;;;;26.78;44.44;96923.94;5089800;28;20028;-70
2021/06/29 08:28:41;;;;;;;7.50;2.90;;;;;;;26.78;43.95;96921.19;5072458;28;20032;-70
2021/06/29 08:31:07;;;;;;;5.72;2.63;;;;;;;26.86;43.35;96920.84;5071914;28;20021;-70
2021/06/29 08:33:33;;;;;;;8.55;2.88;;;;;;;27.04;42.69;96920.72;5082452;28;20027;-70
2021/06/29 08:35:58;;;;;;;6.15;2.60;;;;;;;27.06;42.67;96924.09;5077179;28;20025;-70
2021/06/29 08:38:24;;;;;;;5.65;2.60;;;;;;;27.02;42.63;96922.06;5089536;28;20380;-67
2021/06/29 08:40:50;;;;;;;8.43;2.75;;;;;;;27.04;43.01;96917.97;5079015;28;20028;-70
2021/06/29 08:43:16;;;;;;;5.35;2.38;;;;;;;27.06;42.57;96918.59;5082793;28;20024;-71
2021/06/29 08:45:42;;;;;;;7.65;2.60;;;;;;;27.12;41.99;96927.81;5086666;28;20039;-70
2021/06/29 08:48:08;;;;;;;5.63;2.65;;;;;;;27.19;42.25;96916.66;5074973;28;20017;-70
2021/06/29 08:50:34;;;;;;;5.93;2.90;;;;;;;27.28;42.29;96925.41;5088240;28;20020;-71
2021/06/29 08:53:01;;;;;;;5.47;2.42;;;;;;;27.19;41.92;96914.75;5080730;28;20038;-71
2021/06/29 08:55:28;;;;;;;7.03;2.63;;;;;;;27.22;42.58;96908.75;5081060;28;20043;-70
2021/06/29 08:57:55;;;;;;;9.20;2.70;;;;;;;27.10;42.19;96910.66;5085208;28;20468;-71
2021/06/29 09:00:21;;;;;;;8.70;2.50;;;;;;;27.30;42.42;96907.53;5076927;28;20113;-70
2021/06/29 09:02:46;;;;;;;5.28;2.58;;;;;;;27.31;41.96;96900.09;5075487;28;20023;-69
2021/06/29 09:05:26;;;;;;;6.00;2.55;;;;;;;27.33;42.21;96903.47;5082196;28;20025;-70
2021/06/29 09:08:05;;;;;;;4.93;2.40;;;;;;;27.35;41.66;96899.38;5071193;28;20430;-70
2021/06/29 09:10:31;;;;;;;3.45;2.35;;;;;;;27.47;41.17;96899.41;5059469;28;20093;-70
2021/06/29 09:12:57;;;;;;;8.02;2.38;;;;;;;27.51;41.21;96894.22;5075156;28;20104;-70
2021/06/29 09:15:36;;;;;;;9.52;2.42;;;;;;;27.56;41.94;96894.31;5072770;28;20028;-70
2021/06/29 09:18:05;;;;;;;7.75;2.70;;;;;;;27.60;41.40;96897.44;5070698;28;20032;-71
2021/06/29 09:20:52;;;;;;;5.40;2.50;;;;;;;27.62;40.93;96890.59;5068352;28;20021;-70
2021/06/29 09:23:32;;;;;;;6.07;2.58;;;;;;;27.54;40.03;96889.03;5073714;28;20052;-71
2021/06/29 09:26:00;;;;;;;9.60;2.63;;;;;;;27.62;40.76;96887.84;5088347;28;20059;-71
2021/06/29 09:28:29;;;;;;;7.05;2.53;;;;;;;27.56;40.94;96877.75;5075922;28;20032;-69
2021/06/29 09:30:59;;;;;;;7.00;2.50;;;;;;;27.79;41.02;96879.59;5084301;28;20135;-74
2021/06/29 09:33:35;;;;;;;9.37;2.93;;;;;;;27.62;41.10;96878.69;5083859;28;20020;-74
2021/06/29 09:36:03;;;;;;;10.55;2.90;;;;;;;27.69;41.14;96873.88;5072045;28;20503;-73
2021/06/29 09:38:38;;;;;;;10.95;2.72;;;;;;;27.79;41.70;96873.25;5062587;28;20025;-72
2021/06/29 09:41:07;;;;;;;5.95;2.88;;;;;;;27.71;43.32;96867.03;5067982;28;20024;-74
2021/06/29 09:43:38;;;;;;;8.07;2.80;;;;;;;27.82;42.61;96867.22;5069855;28;20081;-76
2021/06/29 09:46:05;;;;;;;;;;;;;;;27.77;42.90;96867.97;5062078;28;20051;-75
2021/06/29 09:48:33;;;;;;;7.97;2.78;;;;;;;27.88;42.57;96853.25;5054435;28;20046;-71
2021/06/29 09:51:01;;;;;;;10.63;2.97;;;;;;;27.99;43.18;96868.09;5065448;28;20036;-72
2021/06/29 09:53:32;;;;;;;9.95;3.10;;;;;;;27.98;41.54;96865.59;5068947;28;20024;-72
2021/06/29 09:56:00;;;;;;;5.88;2.78;;;;;;;28.25;41.27;96865.03;5072328;28;20021;-72
2021/06/29 09:58:26;;;;;;;7.57;2.75;;;;;;;28.12;42.13;96863.41;5092602;28;20024;-67
2021/06/29 10:00:54;;;;;;;14.13;3.33;;;;;;;28.29;41.49;96866.19;5067636;28;20164;-71
2021/06/29 10:03:24;;;;;;;20.10;5.97;;;;;;;28.23;40.61;96868.91;5074506;28;20060;-71
2021/06/29 10:05:52;;;;;;;12.32;4.57;;;;;;;28.45;40.65;96865.41;5072123;28;20504;-70
2021/06/29 10:08:38;;;;;;;10.88;4.20;;;;;;;28.37;39.52;96863.88;5103357;28;20393;-69
2021/06/29 10:11:19;;;;;;;15.15;4.53;;;;;;;28.44;39.21;96860.13;5091875;28;20056;-70
2021/06/29 10:13:48;;;;;;;10.18;3.65;;;;;;;28.56;39.41;96858.94;5079934;28;20017;-71
2021/06/29 10:16:16;;;;;;;11.43;4.10;;;;;;;28.70;38.32;96864.16;5079256;28;20393;-70
2021/06/29 10:18:50;;;;;;;9.23;3.85;;;;;;;28.66;38.22;96879.59;5073494;28;20085;-71
2021/06/29 10:21:19;;;;;;;10.63;3.85;;;;;;;28.84;38.28;96868.28;5077471;28;20112;-71
2021/06/29 10:23:45;;;;;;;11.07;4.15;;;;;;;28.73;39.64;96860.91;5077417;28;20492;-70
2021/06/29 10:26:12;;;;;;;11.13;3.72;;;;;;;28.68;40.77;96867.19;5069510;28;20040;-69
2021/06/29 10:28:38;;;;;;;12.15;4.15;;;;;;;28.61;40.88;96862.88;5067745;28;20451;-70
2021/06/29 10:31:04;;;;;;;10.95;3.85;;;;;;;28.65;41.10;96862.19;5061482;28;20057;-71
2021/06/29 10:33:29;;;;;;;10.43;3.72;;;;;;;28.55;40.13;96860.06;5080982;28;20093;-73
2021/06/29 10:35:55;;;;;;;12.27;3.90;;;;;;;28.69;39.93;96865.28;5097220;28;20044;-71
2021/06/29 10:38:21;;;;;;;9.18;4.03;;;;;;;28.60;38.89;96862.06;5083527;28;20494;-71
2021/06/29 10:40:51;;;;;;;9.85;3.95;;;;;;;28.61;39.49;96865.66;5071334;28;20024;-71
2021/06/29 10:43:16;;;;;;;8.50;3.50;;;;;;;28.71;38.96;96860.31;5073235;28;20021;-71
2021/06/29 10:45:42;;;;;;;9.90;3.30;;;;;;;28.77;38.84;96852.94;5071917;28;20028;-71
2021/06/29 10:48:26;;;;;;;9.80;3.35;;;;;;;28.66;37.99;96854.69;5075620;28;20024;-71
2021/06/29 10:50:54;;;;;;;11.43;3.50;;;;;;;28.81;39.16;96854.09;5076388;28;20036;-70
2021/06/29 10:53:39;;;;;;;15.60;3.75;;;;;;;28.84;38.63;96848.91;5069072;28;20024;-72
2021/06/29 10:56:16;;;;;;;13.55;3.70;;;;;;;28.76;38.83;96841.03;5069637;28;20051;-72
2021/06/29 10:58:50;;;;;;;12.43;3.95;;;;;;;28.84;39.10;96842.56;5076559;28;20043;-71
2021/06/29 11:01:19;;;;;;;10.63;3.90;;;;;;;29.10;39.28;96838.22;5070077;28;20055;-72
2021/06/29 11:03:45;;;;;;;10.52;3.50;;;;;;;29.13;37.68;96834.09;5089225;28;20028;-71
2021/06/29 11:06:11;;;;;;;10.90;3.83;;;;;;;29.00;38.56;96829.78;5071610;28;20027;-68
2021/06/29 11:08:47;;;;;;;10.35;3.80;;;;;;;29.00;37.90;96815.94;5067677;28;20040;-66
2021/06/29 11:11:13;;;;;;;11.05;3.55;;;;;;;28.86;38.50;96815.44;5071362;28;20119;-68
2021/06/29 11:13:40;;;;;;;14.88;3.60;;;;;;;28.79;37.76;96823.09;5062780;28;20020;-66
2021/06/29 11:16:06;;;;;;;11.10;3.72;;;;;;;28.96;37.65;96818.38;5078593;28;20028;-69
2021/06/29 11:18:34;;;;;;;9.18;3.80;;;;;;;28.94;37.34;96819.72;5069644;28;20035;-69
2021/06/29 11:21:02;;;;;;;16.30;3.53;;;;;;;29.01;36.34;96828.66;5085643;28;20020;-68
2021/06/29 11:23:30;;;;;;;12.15;3.65;;;;;;;29.09;36.46;96817.19;5074041;28;20017;-69
2021/06/29 11:26:00;;;;;;;11.15;3.33;;;;;;;29.03;37.30;96813.47;5080643;28;20059;-69
2021/06/29 11:28:36;;;;;;;12.90;3.83;;;;;;;28.99;37.12;96812.31;5070905;28;20032;-69
2021/06/29 11:31:19;;;;;;;11.05;3.65;;;;;;;29.13;36.26;96814.72;5070416;28;20396;-71
2021/06/29 11:33:45;;;;;;;7.50;2.83;;;;;;;29.07;36.00;96824.88;5072333;28;20020;-72
2021/06/29 11:38:51;;;;;;;;;;;;;;;29.30;33.76;96804.47;5068376;28;20393;-70